Time;durP1;ratioP1;P1;durP2;ratioP2;P2;SDS_P1;SDS_P2;PMS_P1;PMS_P2;Temp;Humidity;BMP_temperature;BMP_pressure;BME280_temperature;BME280_humidity;BME280_pressure;Samples;Min_cycle;Max_cycle;Signal;HPM_P1;HPM_P2
2021/08/25 00:04:21;;;;;;;8.55;3.88;;;;;;;11.85;64.27;100770.94;10455649;28;20586;-58
2021/08/25 00:09:23;;;;;;;9.23;4.07;;;;;;;11.92;63.99;100767.97;10456755;28;20057;-61
2021/08/25 00:14:25;;;;;;;8.77;3.72;;;;;;;11.99;63.91;100773.69;10460022;28;20191;-61
2021/08/25 00:19:26;;;;;;;6.60;3.47;;;;;;;12.03;63.72;100772.63;10447279;28;20151;-60
2021/08/25 00:24:28;;;;;;;6.55;3.63;;;;;;;11.92;63.35;100772.34;10472226;28;20153;-60
2021/08/25 00:29:30;;;;;;;7.82;3.72;;;;;;;11.85;63.69;100768.34;10452410;28;20147;-60
2021/08/25 00:34:32;;;;;;;10.75;4.03;;;;;;;11.95;63.92;100753.81;10471968;28;20137;-61
2021/08/25 00:39:33;;;;;;;13.48;4.47;;;;;;;11.72;63.63;100754.19;10444888;28;20545;-61
2021/08/25 00:44:36;;;;;;;7.85;4.00;;;;;;;11.45;64.10;100755.56;10469042;28;20068;-58
2021/08/25 00:49:38;;;;;;;8.38;4.05;;;;;;;11.25;64.77;100743.47;10475064;28;20081;-60
2021/08/25 00:54:40;;;;;;;9.27;4.18;;;;;;;11.40;64.61;100742.69;10447394;28;20124;-60
2021/08/25 00:59:41;;;;;;;6.22;3.40;;;;;;;11.44;64.65;100735.56;10473440;28;20132;-61
2021/08/25 01:04:51;;;;;;;7.40;4.00;;;;;;;11.46;64.38;100729.28;10427396;28;20040;-61
2021/08/25 01:09:54;;;;;;;6.57;3.90;;;;;;;11.44;64.29;100730.31;10436381;28;20108;-61
2021/08/25 01:14:56;;;;;;;8.85;3.80;;;;;;;11.42;64.37;100724.31;10471225;28;20494;-58
2021/08/25 01:20:03;;;;;;;11.02;4.00;;;;;;;11.43;64.52;100734.69;10447767;28;20127;-58
2021/08/25 01:25:08;;;;;;;87.38;5.90;;;;;;;11.37;64.83;100729.78;10445380;28;20045;-60
2021/08/25 01:30:10;;;;;;;18.80;4.20;;;;;;;11.33;64.66;100728.22;10418790;28;20076;-61
2021/08/25 01:35:12;;;;;;;12.98;4.68;;;;;;;11.28;64.86;100720.59;10452513;28;20077;-61
2021/08/25 01:40:14;;;;;;;11.40;4.05;;;;;;;11.30;64.62;100720.50;10476731;28;20131;-61
2021/08/25 01:45:16;;;;;;;13.38;3.90;;;;;;;11.30;64.58;100713.53;10470609;28;20080;-59
2021/08/25 01:50:18;;;;;;;7.03;3.70;;;;;;;11.25;64.46;100718.13;10454008;28;20080;-61
2021/08/25 01:55:20;;;;;;;41.83;4.63;;;;;;;11.16;64.85;100715.97;10468368;28;20132;-61
2021/08/25 02:00:22;;;;;;;34.38;4.28;;;;;;;11.16;64.78;100712.50;10463633;28;20041;-58
2021/08/25 02:05:24;;;;;;;407.40;11.23;;;;;;;11.17;65.02;100716.84;10464904;28;20049;-60
2021/08/25 02:10:26;;;;;;;138.15;6.30;;;;;;;11.15;65.09;100711.66;10460001;28;20577;-60
2021/08/25 02:15:27;;;;;;;162.00;6.78;;;;;;;10.88;65.14;100713.00;10464626;28;20560;-61
2021/08/25 02:20:29;;;;;;;20.15;3.50;;;;;;;11.01;65.40;100710.63;10461600;28;20052;-60
2021/08/25 02:25:31;;;;;;;27.02;3.88;;;;;;;11.14;65.01;100704.75;10489966;28;20135;-58
2021/08/25 02:30:32;;;;;;;208.30;7.97;;;;;;;11.10;64.80;100710.19;10496291;28;20072;-60
2021/08/25 02:35:34;;;;;;;73.35;4.95;;;;;;;11.03;65.27;100701.75;10492861;28;20052;-60
2021/08/25 02:40:36;;;;;;;147.77;6.70;;;;;;;10.98;64.82;100693.31;10495541;28;20079;-60
2021/08/25 02:45:38;;;;;;;38.67;3.67;;;;;;;10.89;65.13;100691.13;10492454;28;20530;-61
2021/08/25 02:50:40;;;;;;;42.88;3.90;;;;;;;10.81;65.13;100690.66;10492398;28;20044;-60
2021/08/25 02:55:41;;;;;;;86.07;5.70;;;;;;;10.82;65.07;100684.50;10498583;28;20132;-60
2021/08/25 03:00:43;;;;;;;415.73;12.55;;;;;;;10.45;65.38;100672.34;10498013;28;20065;-60
2021/08/25 03:05:45;;;;;;;35.10;4.00;;;;;;;10.40;65.83;100668.22;10480058;28;20480;-60
2021/08/25 03:10:47;;;;;;;117.10;5.65;;;;;;;10.51;65.61;100665.97;10488932;28;20084;-59
2021/08/25 03:15:48;;;;;;;221.50;7.65;;;;;;;10.45;65.50;100667.13;10488536;28;20143;-60
2021/08/25 03:20:50;;;;;;;357.35;10.98;;;;;;;10.16;66.06;100674.63;10488294;28;20090;-60
2021/08/25 03:25:53;;;;;;;112.15;5.30;;;;;;;10.24;66.44;100660.28;10430960;28;20072;-60
2021/08/25 03:30:57;;;;;;;38.40;3.85;;;;;;;10.36;66.21;100664.94;10489678;28;20087;-60
2021/08/25 03:35:58;;;;;;;67.65;4.45;;;;;;;10.46;65.95;100654.91;10487704;28;20048;-60
2021/08/25 03:41:00;;;;;;;23.55;3.28;;;;;;;10.48;65.80;100653.06;10479226;28;20474;-59
2021/08/25 03:46:02;;;;;;;66.18;4.10;;;;;;;10.41;65.85;100649.88;10488974;28;20045;-60
2021/08/25 03:51:04;;;;;;;74.95;4.05;;;;;;;10.23;66.05;100639.44;10483698;28;20048;-60
2021/08/25 03:56:05;;;;;;;51.85;3.63;;;;;;;10.21;66.28;100639.53;10486352;28;20118;-60
2021/08/25 04:01:07;;;;;;;276.38;7.70;;;;;;;10.14;65.98;100648.56;10487125;28;20152;-60
2021/08/25 04:06:09;;;;;;;78.80;4.05;;;;;;;10.17;66.50;100643.19;10480789;28;20086;-60
2021/08/25 04:11:17;;;;;;;27.70;2.90;;;;;;;10.24;66.49;100639.38;10476255;28;20123;-60
2021/08/25 04:16:19;;;;;;;19.30;2.92;;;;;;;10.35;65.85;100642.34;10488014;28;20131;-60
2021/08/25 04:21:20;;;;;;;43.92;3.38;;;;;;;10.20;66.20;100637.81;10486217;28;20052;-60
2021/08/25 04:26:22;;;;;;;108.72;4.40;;;;;;;10.19;66.29;100643.13;10471725;28;20132;-60
2021/08/25 04:31:24;;;;;;;47.20;3.50;;;;;;;10.22;66.31;100642.97;10463947;28;20143;-60
2021/08/25 04:36:26;;;;;;;43.58;3.60;;;;;;;10.22;66.24;100640.34;10484556;28;20052;-60
2021/08/25 04:41:27;;;;;;;33.90;3.42;;;;;;;10.22;66.22;100635.97;10478237;28;20072;-60
2021/08/25 04:46:29;;;;;;;71.70;3.45;;;;;;;10.22;66.29;100635.97;10487445;28;20084;-60
2021/08/25 04:51:31;;;;;;;51.80;3.35;;;;;;;10.42;65.88;100637.63;10484820;28;20696;-59
2021/08/25 04:56:33;;;;;;;65.00;3.65;;;;;;;10.42;65.49;100633.25;10485043;28;20044;-60
2021/08/25 05:01:35;;;;;;;49.17;3.40;;;;;;;10.37;65.89;100637.88;10483224;28;20071;-59
2021/08/25 05:06:39;;;;;;;231.82;6.82;;;;;;;10.42;65.76;100635.00;10432429;28;20502;-59
2021/08/25 05:11:41;;;;;;;54.25;3.47;;;;;;;10.45;65.62;100643.59;10479401;28;20048;-59
2021/08/25 05:16:42;;;;;;;207.73;6.05;;;;;;;10.49;65.39;100634.66;10486434;28;20556;-59
2021/08/25 05:21:44;;;;;;;152.00;5.22;;;;;;;10.66;65.36;100639.09;10484021;28;20055;-58
2021/08/25 05:26:47;;;;;;;9.32;2.55;;;;;;;10.89;64.84;100641.41;10486273;28;20044;-59
2021/08/25 05:31:48;;;;;;;40.38;2.70;;;;;;;11.19;64.36;100636.44;10481971;28;20548;-59
2021/08/25 05:36:50;;;;;;;11.50;2.42;;;;;;;11.43;63.78;100636.94;10485941;28;20135;-59
2021/08/25 05:41:52;;;;;;;8.30;2.40;;;;;;;11.45;63.57;100633.31;10483347;28;20131;-58
2021/08/25 05:46:54;;;;;;;50.72;3.30;;;;;;;11.47;63.56;100643.72;10483425;28;20135;-58
2021/08/25 05:51:55;;;;;;;13.95;2.58;;;;;;;11.63;63.39;100642.84;10483130;28;20131;-59
2021/08/25 05:56:57;;;;;;;212.88;6.32;;;;;;;11.97;62.52;100641.88;10478513;28;20056;-59
2021/08/25 06:01:59;;;;;;;85.35;4.22;;;;;;;11.70;63.23;100643.34;10489583;28;20465;-59
2021/08/25 06:07:01;;;;;;;9.57;2.78;;;;;;;11.73;63.13;100638.78;10483573;28;20046;-59
2021/08/25 06:12:03;;;;;;;4.18;2.10;;;;;;;11.91;62.88;100642.19;10483256;28;20795;-59
2021/08/25 06:17:06;;;;;;;3.83;2.42;;;;;;;11.99;62.73;100630.38;10490567;28;20087;-59
2021/08/25 06:22:07;;;;;;;9.98;2.20;;;;;;;12.01;62.83;100638.16;10487714;28;20131;-59
2021/08/25 06:27:09;;;;;;;6.45;2.08;;;;;;;12.07;62.83;100632.56;10492618;28;20091;-59
2021/08/25 06:32:11;;;;;;;3.95;2.25;;;;;;;12.29;62.73;100638.38;10485350;28;20087;-59
2021/08/25 06:37:13;;;;;;;5.68;2.45;;;;;;;12.47;62.67;100637.34;10474569;28;20136;-59
2021/08/25 06:42:14;;;;;;;5.22;2.90;;;;;;;12.59;62.74;100638.41;10477499;28;20084;-59
2021/08/25 06:47:16;;;;;;;7.32;2.78;;;;;;;12.68;62.50;100630.03;10467491;28;20048;-59
2021/08/25 06:52:18;;;;;;;4.97;2.70;;;;;;;12.85;62.47;100633.38;10489349;28;20086;-59
2021/08/25 06:57:20;;;;;;;4.75;2.70;;;;;;;13.05;62.62;100631.38;10491550;28;20091;-59
2021/08/25 07:02:21;;;;;;;5.53;2.60;;;;;;;13.24;62.47;100624.06;10489102;28;20052;-59
2021/08/25 07:07:23;;;;;;;5.05;2.60;;;;;;;13.31;62.38;100625.41;10470578;28;20049;-59
2021/08/25 07:12:25;;;;;;;4.60;2.40;;;;;;;13.52;62.14;100614.47;10476676;28;20041;-59
2021/08/25 07:17:27;;;;;;;7.32;2.33;;;;;;;13.74;61.46;100611.34;10483008;28;20564;-59
2021/08/25 07:22:29;;;;;;;5.90;2.50;;;;;;;14.02;61.24;100616.59;10488443;28;20565;-59
2021/08/25 07:27:30;;;;;;;5.55;2.63;;;;;;;14.18;60.91;100611.22;10484270;28;20167;-59
2021/08/25 07:32:32;;;;;;;6.32;2.30;;;;;;;14.24;60.69;100609.03;10488471;28;20072;-59
2021/08/25 07:37:35;;;;;;;6.38;3.13;;;;;;;14.49;59.62;100598.63;10486319;28;20048;-59
2021/08/25 07:42:36;;;;;;;4.95;2.55;;;;;;;15.26;57.06;100585.50;10481953;28;20128;-60
2021/08/25 07:47:39;;;;;;;5.22;2.72;;;;;;;16.15;55.23;100580.94;10487613;28;20131;-59
2021/08/25 07:52:41;;;;;;;9.57;3.03;;;;;;;17.04;52.84;100587.44;10489149;28;20131;-59
2021/08/25 07:57:43;;;;;;;8.25;2.92;;;;;;;17.69;51.05;100567.34;10486421;28;20110;-59
2021/08/25 08:02:44;;;;;;;8.77;3.63;;;;;;;18.26;49.34;100563.69;10485364;28;20083;-59
2021/08/25 08:07:46;;;;;;;5.97;2.63;;;;;;;18.74;48.31;100553.47;10469826;28;20386;-58
2021/08/25 08:12:48;;;;;;;5.60;3.20;;;;;;;18.91;46.03;100553.72;10462449;28;20072;-59
2021/08/25 08:17:50;;;;;;;6.00;2.92;;;;;;;18.98;46.80;100562.88;10475736;28;20044;-59
2021/08/25 08:22:52;;;;;;;6.82;3.10;;;;;;;19.00;45.48;100560.91;10478825;28;20123;-58
2021/08/25 08:27:54;;;;;;;5.50;3.28;;;;;;;19.13;45.60;100558.94;10479817;28;20508;-59
2021/08/25 08:32:55;;;;;;;7.05;3.20;;;;;;;19.69;44.49;100562.00;10484195;28;20091;-58
2021/08/25 08:37:59;;;;;;;9.18;3.42;;;;;;;19.59;44.22;100557.63;10486080;28;20052;-59
2021/08/25 08:43:09;;;;;;;8.38;3.40;;;;;;;19.74;42.58;100564.25;10480135;28;20092;-60
2021/08/25 08:48:13;;;;;;;7.47;3.30;;;;;;;19.82;43.33;100559.13;10477383;28;20156;-61
2021/08/25 08:53:19;;;;;;;7.18;3.38;;;;;;;19.99;43.33;100559.31;10484926;28;20505;-61
2021/08/25 08:58:21;;;;;;;8.23;3.50;;;;;;;20.32;42.34;100558.09;10486099;28;20049;-61
2021/08/25 09:03:29;;;;;;;7.00;3.42;;;;;;;20.42;41.21;100547.50;10480179;28;20119;-61
2021/08/25 09:08:32;;;;;;;6.38;3.42;;;;;;;20.42;42.64;100536.88;10462338;28;20057;-60
2021/08/25 09:13:48;;;;;;;8.68;3.42;;;;;;;20.90;40.66;100535.03;10474432;28;20492;-60
2021/08/25 09:19:06;;;;;;;7.53;3.50;;;;;;;21.38;39.76;100516.28;10470710;28;20120;-60
2021/08/25 09:24:10;;;;;;;6.80;3.20;;;;;;;21.95;40.50;100513.31;10485774;28;20079;-60
2021/08/25 09:29:19;;;;;;;7.78;3.17;;;;;;;21.87;38.40;100502.59;10484935;28;20143;-61
2021/08/25 09:34:32;;;;;;;8.68;3.75;;;;;;;22.13;39.10;100508.06;10480670;28;20120;-61
2021/08/25 09:39:47;;;;;;;5.95;3.03;;;;;;;21.93;39.21;100507.31;10481846;28;20044;-61
2021/08/25 09:45:13;;;;;;;9.10;3.33;;;;;;;21.99;38.56;100501.38;10482662;28;20053;-62
2021/08/25 09:50:23;;;;;;;6.97;3.22;;;;;;;22.36;38.30;100488.78;10475276;28;20669;-62
2021/08/25 09:55:33;;;;;;;5.82;2.20;;;;;;;22.52;38.00;100488.06;10483729;28;20182;-62
2021/08/25 10:00:36;;;;;;;3.75;2.05;;;;;;;22.62;38.21;100475.50;10483830;28;20136;-62
2021/08/25 10:05:38;;;;;;;6.78;2.30;;;;;;;22.94;37.95;100474.91;10484791;28;20056;-61
2021/08/25 10:10:40;;;;;;;5.93;2.75;;;;;;;22.75;37.89;100461.78;10464814;28;20063;-61
2021/08/25 10:15:45;;;;;;;6.05;2.10;;;;;;;22.46;38.01;100467.38;10469657;28;20102;-61
2021/08/25 10:20:47;;;;;;;5.82;3.35;;;;;;;22.34;37.68;100458.78;10480371;28;20048;-62
2021/08/25 10:26:08;;;;;;;5.13;2.70;;;;;;;22.33;35.43;100453.63;10475213;28;20094;-62
2021/08/25 10:31:10;;;;;;;5.53;3.25;;;;;;;22.36;36.42;100442.66;10430195;28;20089;-61
2021/08/25 10:36:23;;;;;;;6.88;2.70;;;;;;;22.47;35.77;100427.25;10431816;28;20055;-62
2021/08/25 10:41:24;;;;;;;6.07;2.80;;;;;;;22.00;36.01;100430.31;10477890;28;20086;-61
2021/08/25 10:46:46;;;;;;;8.18;3.70;;;;;;;22.05;34.63;100412.91;10485150;28;20124;-62
2021/08/25 10:51:48;;;;;;;9.25;4.40;;;;;;;22.00;36.29;100407.19;10491288;28;20453;-62
2021/08/25 10:56:50;;;;;;;8.30;3.67;;;;;;;21.97;34.93;100396.81;10485983;28;20186;-62
2021/08/25 11:01:58;;;;;;;7.47;3.85;;;;;;;21.73;34.86;100383.28;10490600;28;20087;-62
2021/08/25 11:07:05;;;;;;;7.47;3.77;;;;;;;21.49;34.98;100383.91;10482602;28;20504;-62
2021/08/25 11:12:23;;;;;;;6.80;2.40;;;;;;;21.78;36.02;100375.69;10483190;28;20387;-62
2021/08/25 11:17:30;;;;;;;5.97;2.67;;;;;;;22.35;35.58;100369.84;10487228;28;20473;-61
2021/08/25 11:22:40;;;;;;;4.72;2.40;;;;;;;22.68;34.32;100354.88;10490061;28;20090;-62
2021/08/25 11:27:48;;;;;;;6.15;3.00;;;;;;;22.87;34.57;100349.34;10482891;28;20552;-61
2021/08/25 11:33:00;;;;;;;6.38;3.33;;;;;;;23.02;35.59;100349.59;10428853;28;20155;-62
2021/08/25 11:38:08;;;;;;;5.93;3.40;;;;;;;23.27;34.93;100335.31;10490041;28;20080;-62
2021/08/25 11:43:11;;;;;;;7.55;3.55;;;;;;;23.24;34.78;100332.97;10488765;28;20121;-61
2021/08/25 11:48:13;;;;;;;5.88;3.15;;;;;;;22.41;34.77;100333.75;10479740;28;20128;-62
2021/08/25 11:53:17;;;;;;;7.30;3.20;;;;;;;22.32;34.56;100321.34;10489370;28;20049;-62
2021/08/25 11:58:27;;;;;;;6.05;3.25;;;;;;;22.45;34.26;100324.44;10482721;28;20408;-62
2021/08/25 12:03:40;;;;;;;7.53;2.90;;;;;;;22.64;34.53;100319.72;10466993;28;20509;-62
2021/08/25 12:08:46;;;;;;;6.88;3.03;;;;;;;22.54;34.34;100300.34;10447842;28;20599;-62
2021/08/25 12:13:57;;;;;;;8.73;3.15;;;;;;;22.63;34.59;100304.72;10476843;28;20123;-61
2021/08/25 12:19:04;;;;;;;6.80;3.15;;;;;;;22.73;34.51;100287.75;10482104;28;20139;-62
2021/08/25 12:24:10;;;;;;;4.88;3.00;;;;;;;22.57;33.91;100293.84;10488166;28;20186;-61
2021/08/25 12:29:12;;;;;;;6.10;3.28;;;;;;;22.60;34.53;100280.19;10483419;28;20095;-61
2021/08/25 12:34:17;;;;;;;5.95;3.10;;;;;;;22.62;34.40;100265.72;10486215;28;20440;-61
2021/08/25 12:39:23;;;;;;;5.88;3.13;;;;;;;22.98;34.54;100260.19;10485184;28;20131;-61
2021/08/25 12:44:25;;;;;;;5.72;3.00;;;;;;;23.04;34.26;100251.53;10478511;28;20481;-61
2021/08/25 12:49:29;;;;;;;8.38;3.28;;;;;;;22.90;34.09;100247.69;10483065;28;20049;-62
2021/08/25 12:54:31;;;;;;;5.78;3.10;;;;;;;22.85;34.67;100239.31;10405771;28;20135;-62
2021/08/25 12:59:33;;;;;;;5.82;3.40;;;;;;;23.02;34.44;100233.03;10477561;28;20072;-61
2021/08/25 13:04:36;;;;;;;6.35;3.20;;;;;;;23.09;34.18;100231.38;10454417;28;20094;-62
2021/08/25 13:09:37;;;;;;;7.35;3.05;;;;;;;23.44;34.42;100219.59;10455518;28;20147;-62
2021/08/25 13:14:39;;;;;;;5.68;3.10;;;;;;;23.26;34.86;100206.38;10484299;28;20088;-62
2021/08/25 13:19:41;;;;;;;4.95;2.92;;;;;;;23.10;34.64;100194.88;10475562;28;20515;-62
2021/08/25 13:24:42;;;;;;;5.88;3.15;;;;;;;22.82;34.27;100185.50;10484700;28;20076;-62
2021/08/25 13:29:44;;;;;;;7.22;3.80;;;;;;;23.11;34.31;100175.16;10450790;28;20140;-62
2021/08/25 13:34:46;;;;;;;4.88;2.90;;;;;;;23.30;34.85;100177.53;10426260;28;20575;-64
2021/08/25 13:39:48;;;;;;;7.03;2.97;;;;;;;23.28;34.79;100171.53;10447751;28;20128;-64
2021/08/25 13:44:50;;;;;;;6.15;2.88;;;;;;;23.50;34.71;100170.88;10444544;28;20433;-64
2021/08/25 13:49:51;;;;;;;6.13;2.90;;;;;;;23.58;34.56;100170.84;10450612;28;20061;-65
2021/08/25 13:54:53;;;;;;;7.18;3.08;;;;;;;23.81;34.72;100161.16;10445764;28;20083;-64
2021/08/25 13:59:56;;;;;;;5.63;2.72;;;;;;;24.19;34.18;100155.03;10460565;28;20036;-63
2021/08/25 14:04:58;;;;;;;5.35;3.10;;;;;;;23.98;34.24;100148.56;10447739;28;20045;-64
2021/08/25 14:10:00;;;;;;;5.32;2.80;;;;;;;23.84;33.81;100138.59;10441838;28;20119;-64
2021/08/25 14:15:02;;;;;;;6.20;3.28;;;;;;;23.46;34.86;100124.16;10463979;28;20484;-64
2021/08/25 14:20:04;;;;;;;5.40;2.70;;;;;;;23.38;35.55;100124.13;10454203;28;20500;-63
2021/08/25 14:25:08;;;;;;;5.72;3.00;;;;;;;23.59;35.44;100115.63;10457815;28;20528;-63
2021/08/25 14:30:10;;;;;;;5.40;2.80;;;;;;;23.58;34.66;100113.94;10467651;28;20131;-63
2021/08/25 14:35:11;;;;;;;6.00;3.30;;;;;;;23.46;35.24;100105.47;10447708;28;20132;-64
2021/08/25 14:40:14;;;;;;;6.75;3.45;;;;;;;23.61;35.08;100098.44;10456674;28;20076;-64
2021/08/25 14:45:16;;;;;;;5.63;3.08;;;;;;;23.82;34.48;100100.56;10475125;28;20087;-64
2021/08/25 14:50:18;;;;;;;6.00;3.47;;;;;;;23.89;33.76;100091.66;10477479;28;20055;-64
2021/08/25 14:55:22;;;;;;;6.32;3.40;;;;;;;23.90;33.96;100087.97;10462610;28;20535;-64
2021/08/25 15:00:25;;;;;;;7.47;3.50;;;;;;;23.85;33.37;100085.00;10450255;28;20068;-64
2021/08/25 15:05:27;;;;;;;5.85;3.25;;;;;;;23.84;33.56;100086.00;10451211;28;20041;-64
2021/08/25 15:10:29;;;;;;;5.70;3.47;;;;;;;23.94;34.43;100070.59;10455510;28;20080;-64
2021/08/25 15:15:31;;;;;;;6.30;3.60;;;;;;;23.90;34.12;100065.78;10473295;28;20481;-64
2021/08/25 15:20:33;;;;;;;5.95;3.65;;;;;;;23.78;34.09;100062.66;10464221;28;20451;-64
2021/08/25 15:25:35;;;;;;;9.15;3.40;;;;;;;23.65;34.52;100067.72;10458091;28;20608;-64
2021/08/25 15:30:36;;;;;;;8.50;3.72;;;;;;;23.78;33.94;100049.28;10469139;28;20151;-64
2021/08/25 15:35:38;;;;;;;8.77;3.70;;;;;;;23.81;33.97;100048.13;10462214;28;20044;-64
2021/08/25 15:40:40;;;;;;;6.80;3.30;;;;;;;23.82;33.71;100047.94;10446653;28;20080;-64
2021/08/25 15:45:41;;;;;;;7.80;3.80;;;;;;;23.84;33.72;100045.94;10463942;28;20127;-63
2021/08/25 15:50:43;;;;;;;6.68;3.63;;;;;;;23.90;33.55;100039.09;10468968;28;20040;-64
2021/08/25 15:55:45;;;;;;;6.82;3.53;;;;;;;23.86;33.34;100043.09;10474069;28;20044;-63
2021/08/25 16:00:46;;;;;;;8.15;3.92;;;;;;;23.90;32.97;100028.41;10437564;28;20127;-65
2021/08/25 16:05:48;;;;;;;7.07;3.80;;;;;;;23.93;32.97;100022.69;10446390;28;20132;-64
2021/08/25 16:10:51;;;;;;;6.72;3.80;;;;;;;23.66;32.54;100020.47;10430874;28;20057;-64
2021/08/25 16:15:53;;;;;;;9.23;4.05;;;;;;;23.46;33.37;100014.72;10441295;28;20090;-64
2021/08/25 16:20:55;;;;;;;7.22;4.15;;;;;;;23.23;32.84;100019.06;10446253;28;20045;-64
2021/08/25 16:25:57;;;;;;;7.72;4.20;;;;;;;23.24;32.68;100012.75;10441262;28;20662;-64
2021/08/25 16:30:58;;;;;;;8.00;4.10;;;;;;;23.34;32.93;100018.72;10442041;28;20159;-64
2021/08/25 16:36:00;;;;;;;8.30;4.20;;;;;;;23.11;33.04;100015.09;10416025;28;20107;-64
2021/08/25 16:41:02;;;;;;;6.82;3.65;;;;;;;22.87;33.70;100017.78;10438433;28;20095;-64
2021/08/25 16:46:05;;;;;;;8.05;4.05;;;;;;;22.70;34.00;100004.44;10459369;28;20164;-64
2021/08/25 16:51:08;;;;;;;7.68;3.95;;;;;;;22.56;34.78;99997.13;10444067;28;20472;-64
2021/08/25 16:56:10;;;;;;;8.20;4.00;;;;;;;22.43;35.18;99998.63;10443523;28;20512;-64
2021/08/25 17:01:11;;;;;;;9.07;4.50;;;;;;;22.33;35.65;99985.44;10436790;28;20687;-64
2021/08/25 17:06:14;;;;;;;7.55;3.92;;;;;;;22.34;35.90;99973.78;10442467;28;20077;-64
2021/08/25 17:11:16;;;;;;;11.85;3.72;;;;;;;22.30;36.54;99971.63;10437426;28;20092;-64
2021/08/25 17:16:20;;;;;;;6.18;3.22;;;;;;;22.24;36.37;99957.13;10437550;28;20083;-64
2021/08/25 17:21:22;;;;;;;7.80;3.63;;;;;;;22.09;37.00;99966.75;10443766;28;20061;-64
2021/08/25 17:26:23;;;;;;;6.88;3.88;;;;;;;22.00;37.40;99964.22;10440019;28;20064;-64
2021/08/25 17:31:26;;;;;;;12.68;4.38;;;;;;;21.84;37.66;99959.72;10441769;28;20140;-64
2021/08/25 17:36:28;;;;;;;8.35;4.95;;;;;;;21.83;37.59;99958.03;10443908;28;20052;-65
2021/08/25 17:41:30;;;;;;;8.85;4.57;;;;;;;21.75;37.88;99958.00;10432145;28;20080;-65
2021/08/25 17:46:33;;;;;;;9.40;4.53;;;;;;;21.68;38.23;99955.16;10441808;28;20080;-65
2021/08/25 17:51:34;;;;;;;8.18;3.60;;;;;;;21.70;38.05;99961.16;10444987;28;20049;-65
2021/08/25 17:56:40;;;;;;;6.38;3.40;;;;;;;21.65;38.40;99957.31;10443713;28;20053;-64
2021/08/25 18:01:42;;;;;;;6.38;3.28;;;;;;;21.52;38.77;99963.09;10450490;28;20128;-65
2021/08/25 18:06:44;;;;;;;6.30;3.47;;;;;;;21.38;38.89;99954.88;10451024;28;20049;-65
2021/08/25 18:11:47;;;;;;;7.40;3.88;;;;;;;21.18;39.19;99966.72;10449599;28;20132;-64
2021/08/25 18:16:49;;;;;;;7.55;3.88;;;;;;;21.00;39.71;99959.66;10439165;28;20120;-64
2021/08/25 18:21:51;;;;;;;7.32;3.78;;;;;;;20.86;40.19;99956.75;10451111;28;20072;-64
2021/08/25 18:26:53;;;;;;;10.80;3.70;;;;;;;20.78;40.26;99951.38;10448960;28;20133;-64
2021/08/25 18:31:57;;;;;;;10.23;5.03;;;;;;;20.72;40.20;99947.47;10449332;28;20057;-64
2021/08/25 18:36:59;;;;;;;8.50;4.65;;;;;;;20.65;40.31;99950.94;10448836;28;20088;-64
2021/08/25 18:42:01;;;;;;;8.32;4.90;;;;;;;20.55;40.28;99953.66;10444315;28;20107;-64
2021/08/25 18:47:04;;;;;;;10.65;5.35;;;;;;;20.51;41.04;99946.97;10448537;28;20133;-65
2021/08/25 18:52:06;;;;;;;8.98;4.85;;;;;;;20.40;41.52;99952.53;10440542;28;20164;-65
2021/08/25 18:57:08;;;;;;;10.07;4.95;;;;;;;20.34;42.56;99953.16;10449524;28;20069;-65
2021/08/25 19:02:10;;;;;;;8.95;4.50;;;;;;;20.15;42.30;99942.69;10435061;28;20521;-65
2021/08/25 19:07:11;;;;;;;9.90;5.20;;;;;;;20.08;42.39;99941.63;10449198;28;20131;-65
2021/08/25 19:12:13;;;;;;;8.90;4.57;;;;;;;20.01;43.20;99932.63;10450397;28;20140;-65
2021/08/25 19:17:15;;;;;;;9.68;4.68;;;;;;;19.90;43.97;99928.34;10450318;28;20128;-64
2021/08/25 19:22:19;;;;;;;8.35;4.97;;;;;;;19.70;44.12;99928.59;10437863;28;20045;-64
2021/08/25 19:27:22;;;;;;;9.68;5.03;;;;;;;19.58;44.45;99919.19;10414411;28;20156;-64
2021/08/25 19:32:23;;;;;;;10.32;5.20;;;;;;;19.48;44.80;99922.72;10420719;28;20148;-64
2021/08/25 19:37:25;;;;;;;10.60;4.93;;;;;;;19.38;45.42;99921.94;10448604;28;20063;-64
2021/08/25 19:42:27;;;;;;;11.82;5.43;;;;;;;19.17;46.89;99925.81;10444704;28;20498;-64
2021/08/25 19:47:29;;;;;;;8.48;5.20;;;;;;;18.97;46.88;99918.91;10433418;28;20087;-64
2021/08/25 19:52:31;;;;;;;10.13;5.47;;;;;;;18.86;46.45;99914.59;10446695;28;20084;-65
2021/08/25 19:57:33;;;;;;;10.20;5.18;;;;;;;18.66;47.43;99915.66;10424703;28;20124;-64
2021/08/25 20:02:36;;;;;;;11.73;5.53;;;;;;;18.53;46.96;99909.81;10441724;28;20045;-64
2021/08/25 20:07:38;;;;;;;10.65;5.55;;;;;;;18.52;46.83;99918.75;10445843;28;20048;-64
2021/08/25 20:12:40;;;;;;;9.07;5.30;;;;;;;18.47;46.79;99910.38;10446929;28;20055;-65
2021/08/25 20:17:43;;;;;;;9.95;5.10;;;;;;;18.27;49.27;99906.94;10444985;28;20106;-65
2021/08/25 20:22:45;;;;;;;8.02;4.70;;;;;;;18.00;51.22;99901.47;10445189;28;20076;-65
2021/08/25 20:27:47;;;;;;;10.65;5.40;;;;;;;17.79;51.15;99904.25;10440988;28;20046;-65
2021/08/25 20:32:49;;;;;;;8.82;5.22;;;;;;;17.67;51.23;99913.28;10442376;28;20144;-65
2021/08/25 20:37:50;;;;;;;13.50;5.38;;;;;;;17.53;51.83;99918.97;10442687;28;20135;-64
2021/08/25 20:42:53;;;;;;;9.90;5.07;;;;;;;17.40;52.67;99913.09;10444862;28;20489;-65
2021/08/25 20:47:54;;;;;;;10.02;5.00;;;;;;;17.24;53.84;99914.53;10444096;28;20570;-65
2021/08/25 20:53:00;;;;;;;11.50;4.88;;;;;;;17.12;54.01;99900.56;10438460;28;20095;-64
2021/08/25 20:58:02;;;;;;;10.63;5.47;;;;;;;17.00;54.57;99896.34;10445527;28;20076;-65
2021/08/25 21:03:04;;;;;;;9.43;5.30;;;;;;;16.95;54.45;99883.56;10439474;28;20129;-65
2021/08/25 21:08:06;;;;;;;10.75;5.63;;;;;;;16.79;54.85;99887.66;10443144;28;20515;-65
2021/08/25 21:13:08;;;;;;;10.98;5.38;;;;;;;16.73;54.59;99898.75;10434306;28;20049;-64
2021/08/25 21:18:10;;;;;;;11.13;5.40;;;;;;;16.73;54.53;99907.50;10443088;28;20079;-65
2021/08/25 21:23:12;;;;;;;10.13;5.35;;;;;;;16.70;54.64;99909.56;10428596;28;20128;-65
2021/08/25 21:28:13;;;;;;;10.00;4.88;;;;;;;16.65;54.70;99902.03;10441959;28;20052;-65
2021/08/25 21:33:15;;;;;;;8.75;5.15;;;;;;;16.56;55.09;99913.38;10428690;28;20502;-65
2021/08/25 21:38:17;;;;;;;8.93;5.30;;;;;;;16.42;55.67;99908.41;10439599;28;20045;-65
2021/08/25 21:43:18;;;;;;;9.75;5.03;;;;;;;16.26;55.87;99909.81;10441293;28;20108;-65
2021/08/25 21:48:20;;;;;;;13.02;5.20;;;;;;;16.21;56.37;99894.34;10442647;28;20125;-65
2021/08/25 21:53:22;;;;;;;10.40;5.32;;;;;;;16.15;56.35;99889.59;10437984;28;20048;-65
2021/08/25 21:58:24;;;;;;;8.73;5.13;;;;;;;16.01;56.15;99882.00;10457643;28;20124;-65
2021/08/25 22:03:25;;;;;;;8.52;4.53;;;;;;;16.01;56.63;99882.00;10444295;28;20470;-65
2021/08/25 22:08:27;;;;;;;10.70;5.32;;;;;;;15.94;57.12;99868.47;10442005;28;20088;-66
2021/08/25 22:13:29;;;;;;;10.65;5.43;;;;;;;15.83;57.25;99863.25;10416546;28;20084;-65
2021/08/25 22:18:30;;;;;;;12.80;5.47;;;;;;;15.86;57.24;99851.59;10445837;28;20085;-62
2021/08/25 22:23:32;;;;;;;9.52;4.97;;;;;;;15.85;57.32;99840.22;10441721;28;20157;-65
2021/08/25 22:28:34;;;;;;;10.27;5.78;;;;;;;15.90;56.78;99842.47;10438271;28;20153;-65
2021/08/25 22:33:38;;;;;;;11.60;5.18;;;;;;;15.90;56.80;99832.75;10433002;28;20135;-65
2021/08/25 22:38:40;;;;;;;7.57;4.70;;;;;;;15.98;55.99;99832.09;10457280;28;20052;-65
2021/08/25 22:43:41;;;;;;;9.30;4.97;;;;;;;16.09;55.68;99817.06;10446929;28;20521;-65
2021/08/25 22:48:43;;;;;;;11.05;5.38;;;;;;;16.18;55.58;99823.38;10448408;28;20472;-64
2021/08/25 22:53:45;;;;;;;9.13;5.18;;;;;;;16.24;55.06;99822.88;10444914;28;20448;-63
2021/08/25 22:58:47;;;;;;;12.95;5.40;;;;;;;16.33;54.85;99813.31;10445265;28;20155;-63
2021/08/25 23:03:48;;;;;;;8.45;4.90;;;;;;;16.43;54.36;99803.63;10447665;28;20080;-63
2021/08/25 23:08:50;;;;;;;9.45;4.85;;;;;;;16.57;54.36;99800.69;10441690;28;20167;-63
2021/08/25 23:13:52;;;;;;;11.60;5.38;;;;;;;16.70;53.91;99803.94;10447508;28;20061;-63